Csk Radiance — VRXB4 — position and weather

sailwx.info

Track history (hours):
 
Tides and Currents Weather Stations Pressure Air Temp Water Temp Dewpoint Dewpoint Depression Visibility Wind Speed Wind Dir Waves Ship Positions

Csk Radiance

Last reported at 2015-Jul-06 21:33 UTC. Time now 2015-Jul-07 08:54 UTC.
Position S 19°48' E 116°52'.

Length 289 m; draft 17.4 m.

Type: Cargo ship. MMSI: 477918000.

Date/timePositionNaut miles runAvg speedWind from/ knotsBaromVisibWave heightAir tempDewpointWater temp
2015-Jul-06 21:33S 19°48' E 116°52'1212.2
2015-Jul-06 20:32S 19°60' E 116°49'1212.1
2015-Jul-06 19:31S 20°12' E 116°45'1111.9
2015-Jul-06 18:33S 20°23' E 116°43'9 9.5
2015-Jul-06 17:33S 20°32' E 116°42'2 0.0
2015-Jul-05 00:27S 20°35' E 116°42'1111.2
2015-Jul-04 23:28S 20°23' E 116°42'9 0.8
2015-Jul-04 12:29S 20°23' E 116°33'0 0.0
2015-Jul-04 11:17S 20°23' E 116°33'7 0.2
2015-Jul-03 01:32S 20°21' E 116°40'1313.0
2015-Jul-03 00:31S 20°09' E 116°47'3013.5
2015-Jul-02 22:18S 19°39' E 116°52'1013.0
2015-Jul-02 21:31S 19°29' E 116°51'  
Track history (hours):
 
Tides and Currents Weather Stations Pressure Air Temp Water Temp Dewpoint Dewpoint Depression Visibility Wind Speed Wind Dir Waves Ship Positions

Csk Radiance

Last reported at 2015-Jul-06 21:33 UTC. Time now 2015-Jul-07 08:54 UTC.
Position S 19°48' E 116°52'.

Length 289 m; draft 17.4 m.

Type: Cargo ship. MMSI: 477918000.

Date/timePositionNaut miles runAvg speedWind from/ knotsBaromVisibWave heightAir tempDewpointWater temp
2015-Jul-06 21:33S 19°48' E 116°52'1212.2
2015-Jul-06 20:32S 19°60' E 116°49'1212.1
2015-Jul-06 19:31S 20°12' E 116°45'1111.9
2015-Jul-06 18:33S 20°23' E 116°43'9 9.5
2015-Jul-06 17:33S 20°32' E 116°42'2 0.0
2015-Jul-05 00:27S 20°35' E 116°42'1111.2
2015-Jul-04 23:28S 20°23' E 116°42'9 0.8
2015-Jul-04 12:29S 20°23' E 116°33'0 0.0
2015-Jul-04 11:17S 20°23' E 116°33'7 0.2
2015-Jul-03 01:32S 20°21' E 116°40'1313.0
2015-Jul-03 00:31S 20°09' E 116°47'3013.5
2015-Jul-02 22:18S 19°39' E 116°52'1013.0
2015-Jul-02 21:31S 19°29' E 116°51'  

Dump ship's entire track history